Time;durP1;ratioP1;P1;durP2;ratioP2;P2;SDS_P1;SDS_P2;PMS_P1;PMS_P2;Temp;Humidity;BMP_temperature;BMP_pressure;BME280_temperature;BME280_humidity;BME280_pressure;Samples;Min_cycle;Max_cycle;Signal;HPM_P1;HPM_P2
2023/03/31 00:06:06;;;;;;;1.53;0.60;;;;;;;;;;20800305;28;20280;-69
2023/03/31 00:16:09;;;;;;;1.73;0.47;;;13.50;99.90;;;;;;20806719;28;20218;-68
2023/03/31 00:26:11;;;;;;;3.27;0.70;;;;;;;;;;20785850;28;20285;-68
2023/03/31 00:36:16;;;;;;;0.80;0.60;;;;;;;;;;20793172;28;20215;-68
2023/03/31 00:46:23;;;;;;;1.63;0.63;;;13.50;99.90;;;;;;20748645;28;20644;-68
2023/03/31 00:56:29;;;;;;;1.80;0.87;;;13.30;99.90;;;;;;20750936;28;20195;-68
2023/03/31 01:06:32;;;;;;;0.50;0.37;;;;;;;;;;20747062;28;20254;-69
2023/03/31 01:16:33;;;;;;;0.90;0.30;;;;;;;;;;20748075;28;20683;-69
2023/03/31 01:26:37;;;;;;;0.87;0.50;;;;;;;;;;20745624;28;20227;-69
2023/03/31 01:37:14;;;;;;;1.97;0.70;;;13.30;99.90;;;;;;20745160;28;20269;-69
2023/03/31 01:47:27;;;;;;;4.13;0.80;;;13.10;99.90;;;;;;20746190;28;20277;-69
2023/03/31 01:57:30;;;;;;;0.80;0.50;;;;;;;;;;20743737;28;20218;-69
2023/03/31 02:07:36;;;;;;;3.57;0.80;;;13.00;99.90;;;;;;20741031;28;20226;-69
2023/03/31 02:17:41;;;;;;;0.93;0.40;;;;;;;;;;20742509;28;20219;-69
2023/03/31 02:27:45;;;;;;;0.47;0.40;;;;;;;;;;20780345;28;20272;-69
2023/03/31 02:37:51;;;;;;;1.80;0.40;;;13.10;99.90;;;;;;20791581;28;20241;-69
2023/03/31 02:47:54;;;;;;;3.10;0.50;;;;;;;;;;20854711;22;20239;-71
2023/03/31 02:58:22;;;;;;;3.47;0.90;;;13.00;99.90;;;;;;20819672;28;20207;-70
2023/03/31 03:08:34;;;;;;;0.90;0.50;;;;;;;;;;20802656;28;20223;-71
2023/03/31 03:18:36;;;;;;;1.40;0.60;;;;;;;;;;20735890;28;20207;-71
2023/03/31 03:28:38;;;;;;;0.83;0.40;;;;;;;;;;20746139;28;20277;-71
2023/03/31 03:38:39;;;;;;;1.27;0.63;;;;;;;;;;20779348;28;20687;-71
2023/03/31 03:48:41;;;;;;;1.30;0.47;;;;;;;;;;20750398;28;20338;-71
2023/03/31 03:58:43;;;;;;;0.87;0.33;;;;;;;;;;20814182;28;20206;-71
2023/03/31 04:08:44;;;;;;;0.73;0.50;;;;;;;;;;20759967;28;20297;-70
2023/03/31 04:18:47;;;;;;;0.50;0.50;;;;;;;;;;20748537;28;20690;-70
2023/03/31 04:28:49;;;;;;;1.43;0.63;;;;;;;;;;20749485;28;20231;-71
2023/03/31 04:38:53;;;;;;;0.87;0.60;;;;;;;;;;20772102;28;20219;-71
2023/03/31 04:48:55;;;;;;;0.83;0.50;;;;;;;;;;20747515;28;20215;-71
2023/03/31 04:58:56;;;;;;;4.33;1.30;;;;;;;;;;20814517;28;20767;-70
2023/03/31 05:08:58;;;;;;;3.17;0.80;;;;;;;;;;20807385;28;20226;-71
2023/03/31 05:19:00;;;;;;;0.43;0.40;;;;;;;;;;20792899;28;20215;-70
2023/03/31 05:29:01;;;;;;;1.60;0.30;;;;;;;;;;20740947;28;20219;-71
2023/03/31 05:39:05;;;;;;;0.87;0.60;;;11.90;99.90;;;;;;20743499;28;20211;-70
2023/03/31 05:49:07;;;;;;;1.50;0.60;;;;;;;;;;20741285;28;20211;-71
2023/03/31 05:59:09;;;;;;;1.70;0.90;;;;;;;;;;20741463;28;20644;-72
2023/03/31 06:09:11;;;;;;;3.57;0.70;;;;;;;;;;20741445;28;20223;-72
2023/03/31 06:19:13;;;;;;;1.03;0.63;;;;;;;;;;20819235;28;20517;-72
2023/03/31 06:29:14;;;;;;;1.50;0.67;;;;;;;;;;20821142;28;20214;-70
2023/03/31 06:39:16;;;;;;;1.07;0.53;;;;;;;;;;20820971;28;20214;-71
2023/03/31 06:49:18;;;;;;;2.97;0.90;;;;;;;;;;20820253;28;20273;-71
2023/03/31 06:59:19;;;;;;;3.07;1.10;;;;;;;;;;20820721;28;20244;-69
2023/03/31 07:09:22;;;;;;;1.37;0.90;;;;;;;;;;20818395;28;20622;-71
2023/03/31 07:19:24;;;;;;;2.57;1.10;;;;;;;;;;20817192;28;20210;-69
2023/03/31 07:29:26;;;;;;;1.70;0.80;;;;;;;;;;20818321;28;20222;-72
2023/03/31 07:39:27;;;;;;;2.20;0.70;;;;;;;;;;20817273;28;20233;-70
2023/03/31 07:49:30;;;;;;;2.93;0.90;;;;;;;;;;20811798;28;20230;-69
2023/03/31 07:59:32;;;;;;;1.20;0.77;;;;;;;;;;20813083;28;20206;-71
2023/03/31 08:09:34;;;;;;;1.40;0.97;;;;;;;;;;20814686;28;20226;-70
2023/03/31 08:19:36;;;;;;;1.17;0.70;;;;;;;;;;20815472;28;20260;-68
2023/03/31 08:29:37;;;;;;;3.03;1.20;;;;;;;;;;20818239;28;20210;-68
2023/03/31 08:39:40;;;;;;;0.90;0.60;;;;;;;;;;20829372;28;20268;-70
2023/03/31 08:49:44;;;;;;;1.43;0.67;;;;;;;;;;20843655;22;20234;-69
2023/03/31 08:59:46;;;;;;;1.13;0.83;;;;;;;;;;20812109;28;20211;-70
2023/03/31 09:10:05;;;;;;;5.63;0.93;;;12.60;99.90;;;;;;20828742;28;20749;-69
2023/03/31 09:20:21;;;;;;;2.00;0.77;;;12.30;99.90;;;;;;20828681;28;20233;-70
2023/03/31 09:30:29;;;;;;;1.23;0.60;;;;;;;;;;20828644;28;20214;-69
2023/03/31 09:40:31;;;;;;;1.53;0.53;;;;;;;;;;20831581;28;20236;-70
2023/03/31 09:50:42;;;;;;;1.63;0.70;;;12.70;99.90;;;;;;20832384;28;20429;-70
2023/03/31 10:00:59;;;;;;;2.17;0.53;;;13.10;99.90;;;;;;20825081;28;20324;-69
2023/03/31 10:11:02;;;;;;;4.87;0.83;;;;;;;;;;20822308;28;20253;-69
2023/03/31 10:21:06;;;;;;;1.57;0.43;;;12.80;99.90;;;;;;20824348;28;20218;-69
2023/03/31 10:31:08;;;;;;;0.93;0.50;;;;;;;;;;20822533;28;20219;-70
2023/03/31 10:41:09;;;;;;;1.73;0.60;;;;;;;;;;20822808;28;20563;-70
2023/03/31 10:51:19;;;;;;;2.00;0.70;;;;;;;;;;20822721;28;20238;-70
2023/03/31 11:01:38;;;;;;;0.30;0.20;;;13.60;99.90;;;;;;20788519;28;20272;-70
2023/03/31 11:11:55;;;;;;;1.13;0.47;;;;;;;;;;20805364;28;20242;-69
2023/03/31 11:22:21;;;;;;;1.47;0.70;;;14.00;99.90;;;;;;20805958;28;20552;-69
2023/03/31 11:32:35;;;;;;;2.10;0.70;;;;;;;;;;20819489;28;20215;-69
2023/03/31 11:43:05;;;;;;;1.27;0.40;;;14.10;99.90;;;;;;20801693;28;20226;-70
2023/03/31 11:53:17;;;;;;;1.83;0.60;;;;;;;;;;20807624;28;20276;-69
2023/03/31 12:03:22;;;;;;;1.53;0.50;;;;;;;;;;20747606;28;20227;-69
2023/03/31 12:13:39;;;;;;;1.20;0.73;;;13.60;99.90;;;;;;20732053;28;20219;-69
2023/03/31 12:23:49;;;;;;;1.40;0.30;;;;;;;;;;20748418;28;20203;-69
2023/03/31 12:34:07;;;;;;;1.00;0.37;;;13.60;99.90;;;;;;20746599;28;20238;-69
2023/03/31 12:44:28;;;;;;;0.30;0.30;;;;;;;;;;20790338;28;20230;-69
2023/03/31 12:54:48;;;;;;;0.30;0.30;;;;;;;;;;20825900;28;20640;-70
2023/03/31 13:04:52;;;;;;;1.90;0.43;;;;;;;;;;20814458;28;20281;-69
2023/03/31 13:14:58;;;;;;;1.83;0.53;;;;;;;;;;20746105;28;20272;-70
2023/03/31 13:25:28;;;;;;;0.93;0.43;;;14.30;99.90;;;;;;20800464;28;20233;-68
2023/03/31 13:35:30;;;;;;;0.83;0.50;;;14.30;99.90;;;;;;20804881;28;20211;-68
2023/03/31 13:45:58;;;;;;;0.97;0.33;;;14.20;99.90;;;;;;20809548;28;20690;-69
2023/03/31 13:56:09;;;;;;;0.57;0.37;;;;;;;;;;20807509;28;20284;-70
2023/03/31 14:06:25;;;;;;;0.77;0.30;;;;;;;;;;20803982;28;20210;-70
2023/03/31 14:16:28;;;;;;;1.13;0.57;;;13.30;99.90;;;;;;20818594;28;20194;-70
2023/03/31 14:26:54;;;;;;;0.30;0.20;;;;;;;;;;20801656;28;20617;-68
2023/03/31 14:36:59;;;;;;;0.83;0.40;;;;;;;;;;20819651;28;20210;-68
2023/03/31 14:47:00;;;;;;;1.63;0.43;;;;;;;;;;20821668;28;20210;-68
2023/03/31 14:57:03;;;;;;;0.80;0.40;;;;;;;;;;20807766;28;20222;-69
2023/03/31 15:07:05;;;;;;;3.50;0.50;;;;;;;;;;20810184;28;20218;-68
2023/03/31 15:17:16;;;;;;;1.80;0.60;;;;;;;;;;20821165;28;20689;-68
2023/03/31 15:27:18;;;;;;;4.27;0.60;;;;;;;;;;20803321;28;20233;-68
2023/03/31 15:37:43;;;;;;;1.77;0.40;;;;;;;;;;20780100;23;20631;-71
2023/03/31 15:47:49;;;;;;;1.30;0.40;;;;;;;;;;20707378;28;20618;-76
2023/03/31 15:57:52;;;;;;;1.37;0.67;;;;;;;;;;20717130;28;20231;-72
2023/03/31 16:07:55;;;;;;;1.43;0.47;;;;;;;;;;20711538;28;20284;-72
2023/03/31 16:18:02;;;;;;;1.60;0.43;;;;;;;;;;20692698;28;20242;-75
2023/03/31 16:28:04;;;;;;;2.03;0.47;;;;;;;;;;20695181;28;20588;-70
2023/03/31 16:38:06;;;;;;;3.10;0.70;;;;;;;;;;20711453;28;20568;-70
2023/03/31 16:48:08;;;;;;;0.50;0.40;;;;;;;;;;20726169;28;20223;-70
2023/03/31 16:58:10;;;;;;;0.33;0.33;;;;;;;;;;20737228;28;20268;-70
2023/03/31 17:08:12;;;;;;;0.80;0.40;;;;;;;;;;20725774;28;20222;-70
2023/03/31 17:18:15;;;;;;;0.47;0.30;;;12.80;99.90;;;;;;20745792;28;20227;-71
2023/03/31 17:28:18;;;;;;;0.27;0.27;;;;;;;;;;20744537;28;20215;-71
2023/03/31 17:38:21;;;;;;;0.40;0.23;;;;;;;;;;20725104;28;20245;-71
2023/03/31 17:48:23;;;;;;;0.57;0.30;;;;;;;;;;20641880;28;20278;-71
2023/03/31 17:58:25;;;;;;;0.63;0.30;;;13.60;99.90;;;;;;20596261;28;20637;-71
2023/03/31 18:08:28;;;;;;;0.87;0.30;;;12.50;99.90;;;;;;20627567;28;20236;-70
2023/03/31 18:18:30;;;;;;;0.90;0.53;;;;;;;;;;20658121;28;20216;-70
2023/03/31 18:28:32;;;;;;;0.57;0.30;;;;;;;;;;20578885;28;20252;-70
2023/03/31 18:38:35;;;;;;;0.30;0.20;;;;;;;;;;20642116;28;20781;-69
2023/03/31 18:48:38;;;;;;;1.30;0.67;;;;;;;;;;20640059;28;20219;-69
2023/03/31 18:58:39;;;;;;;1.03;0.40;;;;;;;;;;20639040;28;20680;-69
2023/03/31 19:08:41;;;;;;;0.87;0.30;;;;;;;;;;20711018;28;20664;-71
2023/03/31 19:18:43;;;;;;;0.50;0.30;;;;;;;;;;20654113;28;20239;-69
2023/03/31 19:28:47;;;;;;;1.00;0.27;;;;;;;;;;20655449;28;20223;-70
2023/03/31 19:38:48;;;;;;;1.07;0.50;;;;;;;;;;20654914;28;20280;-70
2023/03/31 19:48:51;;;;;;;1.27;0.30;;;;;;;;;;20654451;28;20240;-70
2023/03/31 19:58:53;;;;;;;1.13;0.30;;;;;;;;;;20604568;28;20790;-69
2023/03/31 20:08:56;;;;;;;0.33;0.33;;;;;;;;;;20709655;28;20230;-69
2023/03/31 20:19:00;;;;;;;0.67;0.50;;;;;;;;;;20717067;28;20203;-69
2023/03/31 20:29:02;;;;;;;0.30;0.30;;;;;;;;;;20742783;28;20655;-69
2023/03/31 20:39:05;;;;;;;0.40;0.30;;;;;;;;;;20731163;28;20679;-69
2023/03/31 20:49:07;;;;;;;0.57;0.20;;;;;;;;;;20748364;28;20219;-70
2023/03/31 20:59:11;;;;;;;0.30;0.20;;;11.30;99.90;;;;;;20747875;28;20655;-70
2023/03/31 21:09:14;;;;;;;1.67;0.40;;;;;;;;;;20745842;28;20697;-70
2023/03/31 21:19:16;;;;;;;1.10;0.30;;;;;;;;;;20729144;28;20273;-71
2023/03/31 21:29:18;;;;;;;3.13;0.33;;;;;;;;;;20745260;28;20238;-71
2023/03/31 21:39:19;;;;;;;0.30;0.20;;;;;;;;;;20726370;28;20219;-71
2023/03/31 21:49:22;;;;;;;0.20;0.20;;;;;;;;;;20710845;28;20277;-69
2023/03/31 21:59:24;;;;;;;0.40;0.30;;;;;;;;;;20723812;28;20207;-70
2023/03/31 22:09:26;;;;;;;0.77;0.30;;;;;;;;;;20723950;28;20219;-70
2023/03/31 22:19:28;;;;;;;0.20;0.20;;;;;;;;;;20723858;28;20351;-70
2023/03/31 22:29:30;;;;;;;0.17;0.17;;;11.30;99.90;;;;;;20723167;28;20215;-70
2023/03/31 22:39:32;;;;;;;0.97;0.20;;;;;;;;;;20741259;28;20559;-70
2023/03/31 22:49:33;;;;;;;1.80;0.50;;;;;;;;;;20722406;28;20642;-70
2023/03/31 22:59:35;;;;;;;1.53;0.50;;;11.20;99.90;;;;;;20721494;28;20285;-70
2023/03/31 23:09:37;;;;;;;0.10;0.10;;;;;;;;;;20719812;28;20618;-70
2023/03/31 23:19:38;;;;;;;1.30;0.57;;;;;;;;;;20719926;28;20238;-72
2023/03/31 23:29:40;;;;;;;0.73;0.37;;;;;;;;;;20737092;28;20218;-70
2023/03/31 23:39:43;;;;;;;0.47;0.30;;;;;;;;;;20703251;28;20268;-71
2023/03/31 23:49:45;;;;;;;0.40;0.10;;;;;;;;;;20736071;28;20219;-71
2023/03/31 23:59:47;;;;;;;1.23;0.50;;;;;;;;;;20736050;28;20234;-71
